Time;durP1;ratioP1;P1;durP2;ratioP2;P2;SDS_P1;SDS_P2;PMS_P1;PMS_P2;Temp;Humidity;BMP_temperature;BMP_pressure;BME280_temperature;BME280_humidity;BME280_pressure;Samples;Min_cycle;Max_cycle;Signal;HPM_P1;HPM_P2
2022/12/31 00:04:55;;;;;;;0.20;0.10;;;15.60;99.90;;;;;;20982520;28;20414;-73
2022/12/31 00:14:58;;;;;;;0.20;0.10;;;15.50;99.90;;;;;;21015797;28;20795;-75
2022/12/31 00:25:04;;;;;;;0.20;0.10;;;15.50;99.90;;;;;;20977587;28;20414;-73
2022/12/31 00:35:09;;;;;;;0.20;0.00;;;15.50;99.90;;;;;;20973894;28;20463;-73
2022/12/31 00:45:14;;;;;;;0.20;0.10;;;15.60;99.90;;;;;;20974834;28;20871;-73
2022/12/31 00:55:37;;;;;;;0.20;0.10;;;15.70;99.90;;;;;;20974272;28;20481;-73
2022/12/31 01:05:41;;;;;;;2.13;2.03;;;15.70;99.90;;;;;;20975385;28;20487;-72
2022/12/31 01:15:45;;;;;;;0.20;0.10;;;15.60;99.90;;;;;;20966013;28;20390;-72
2022/12/31 01:25:50;;;;;;;0.20;0.10;;;15.50;99.90;;;;;;20975348;28;20410;-72
2022/12/31 01:35:54;;;;;;;0.20;0.10;;;16.10;99.90;;;;;;20958871;28;20532;-72
2022/12/31 01:46:00;;;;;;;0.20;0.10;;;16.10;99.90;;;;;;20975748;28;20839;-72
2022/12/31 01:56:05;;;;;;;0.20;0.10;;;15.70;99.90;;;;;;20942658;28;20429;-73
2022/12/31 02:06:14;;;;;;;0.20;0.10;;;15.70;99.90;;;;;;20959142;28;20429;-72
2022/12/31 02:16:24;;;;;;;0.20;0.10;;;16.20;99.90;;;;;;20973697;28;20401;-72
2022/12/31 02:27:01;;;;;;;0.20;0.10;;;16.90;99.90;;;;;;20989958;28;20406;-72
2022/12/31 02:47:47;;;;;;;0.20;0.10;;;16.80;99.90;;;;;;20907275;28;20408;-72
2022/12/31 02:57:59;;;;;;;0.20;0.10;;;16.90;99.90;;;;;;20888204;28;20469;-71
2022/12/31 03:08:03;;;;;;;0.20;0.00;;;16.90;99.90;;;;;;20885058;28;20464;-72
2022/12/31 03:18:10;;;;;;;0.20;0.10;;;16.90;99.90;;;;;;20968904;28;20481;-72
2022/12/31 03:28:16;;;;;;;0.20;0.10;;;16.80;99.90;;;;;;20986474;28;20468;-72
2022/12/31 03:38:22;;;;;;;0.20;0.10;;;16.90;99.90;;;;;;20984118;28;20386;-72
2022/12/31 03:48:26;;;;;;;0.20;0.10;;;16.70;99.90;;;;;;20984464;28;20475;-72
2022/12/31 03:58:31;;;;;;;0.20;0.10;;;16.70;99.90;;;;;;20965932;28;20900;-74
2022/12/31 04:08:34;;;;;;;0.20;0.10;;;16.40;99.90;;;;;;20964825;28;20424;-73
2022/12/31 04:18:40;;;;;;;0.20;0.10;;;16.40;99.90;;;;;;20964351;28;20881;-72
2022/12/31 04:28:43;;;;;;;0.20;0.10;;;16.40;99.90;;;;;;20963297;28;20829;-73
2022/12/31 04:38:48;;;;;;;0.20;0.10;;;16.30;99.90;;;;;;20980227;28;20406;-73
2022/12/31 04:48:53;;;;;;;0.20;0.10;;;16.20;99.90;;;;;;20977873;28;20418;-71
2022/12/31 04:58:58;;;;;;;0.20;0.10;;;16.20;99.90;;;;;;20970688;28;20386;-72
2022/12/31 05:09:02;;;;;;;0.20;0.10;;;16.20;99.90;;;;;;20956607;28;20889;-72
2022/12/31 05:19:08;;;;;;;0.20;0.10;;;16.30;99.90;;;;;;20960347;28;20390;-71
2022/12/31 05:29:12;;;;;;;0.20;0.10;;;16.60;99.90;;;;;;20959702;28;20908;-72
2022/12/31 05:39:35;;;;;;;0.20;0.10;;;17.20;99.90;;;;;;20959772;28;20447;-72
2022/12/31 05:49:57;;;;;;;0.20;0.10;;;17.10;99.90;;;;;;20992316;28;20765;-72
2022/12/31 06:00:02;;;;;;;0.20;0.10;;;16.60;99.90;;;;;;20993674;28;20413;-72
2022/12/31 06:10:07;;;;;;;0.20;0.10;;;16.50;99.90;;;;;;20991893;28;20869;-72
2022/12/31 06:20:12;;;;;;;0.20;0.10;;;17.10;99.90;;;;;;20990572;28;20408;-72
2022/12/31 06:30:16;;;;;;;0.20;0.10;;;17.00;99.90;;;;;;20973765;28;20419;-72
2022/12/31 06:40:21;;;;;;;0.20;0.10;;;16.80;99.90;;;;;;20972530;28;20405;-72
2022/12/31 06:50:25;;;;;;;0.20;0.10;;;16.00;99.90;;;;;;20989480;28;20413;-71
2022/12/31 07:00:31;;;;;;;0.20;0.10;;;15.50;99.90;;;;;;20969985;28;20437;-71
2022/12/31 07:10:57;;;;;;;0.20;0.03;;;15.20;99.90;;;;;;20970266;28;20413;-71
2022/12/31 07:21:03;;;;;;;0.20;0.10;;;14.90;99.90;;;;;;20968594;28;20398;-72
2022/12/31 07:31:12;;;;;;;0.20;0.10;;;15.00;99.90;;;;;;20985913;28;20422;-72
2022/12/31 07:41:28;;;;;;;0.20;0.10;;;15.00;99.90;;;;;;20984574;28;20905;-72
2022/12/31 07:51:32;;;;;;;0.20;0.10;;;14.80;99.90;;;;;;20965823;28;20394;-72
2022/12/31 08:01:47;;;;;;;0.20;0.10;;;14.70;99.90;;;;;;20983090;28;20409;-71
2022/12/31 08:11:57;;;;;;;0.20;0.10;;;14.40;99.90;;;;;;20978560;28;20386;-73
2022/12/31 08:22:18;;;;;;;0.20;0.10;;;14.20;99.90;;;;;;20963009;28;20815;-73
2022/12/31 08:32:26;;;;;;;0.20;0.10;;;14.70;99.90;;;;;;20965656;28;20386;-73
2022/12/31 08:42:40;;;;;;;0.20;0.00;;;15.20;99.90;;;;;;20980549;28;20409;-72
2022/12/31 08:52:44;;;;;;;0.20;0.00;;;16.00;99.90;;;;;;20961684;28;20390;-71
2022/12/31 09:03:33;;;;;;;0.20;0.00;;;16.50;99.90;;;;;;20977962;28;20468;-71
2022/12/31 09:14:00;;;;;;;0.20;0.10;;;16.80;99.90;;;;;;20955664;28;20409;-71
2022/12/31 09:24:06;;;;;;;0.20;0.00;;;17.30;99.90;;;;;;20977662;28;20421;-70
2022/12/31 09:34:23;;;;;;;0.20;0.10;;;17.60;99.90;;;;;;20977790;28;20394;-71
2022/12/31 09:45:07;;;;;;;0.20;0.00;;;17.60;99.90;;;;;;20958487;28;20504;-74
2022/12/31 09:55:31;;;;;;;0.20;0.00;;;18.10;99.90;;;;;;20960135;28;20402;-73
2022/12/31 10:06:06;;;;;;;0.20;0.00;;;18.50;99.90;;;;;;20975308;28;20409;-72
2022/12/31 10:16:40;;;;;;;0.20;0.00;;;19.10;99.90;;;;;;20975994;28;20408;-71
2022/12/31 10:27:01;;;;;;;0.20;0.10;;;19.50;99.90;;;;;;20975241;28;20513;-71
2022/12/31 10:37:12;;;;;;;0.20;0.00;;;20.10;99.90;;;;;;20970225;28;20832;-72
2022/12/31 10:48:02;;;;;;;0.20;0.00;;;20.60;99.90;;;;;;20987582;28;20487;-72
2022/12/31 10:58:57;;;;;;;0.20;0.07;;;21.60;99.90;;;;;;20984553;28;20497;-71
2022/12/31 11:09:24;;;;;;;0.20;0.00;;;21.10;99.90;;;;;;20982101;28;20489;-72
2022/12/31 11:19:47;;;;;;;0.20;0.10;;;20.60;99.90;;;;;;20983796;28;20405;-72
2022/12/31 11:30:05;;;;;;;0.20;0.00;;;20.00;99.90;;;;;;20985458;28;20406;-72
2022/12/31 11:40:53;;;;;;;0.20;0.10;;;20.10;99.90;;;;;;20981564;28;20745;-71
2022/12/31 11:51:16;;;;;;;0.20;0.00;;;19.80;99.90;;;;;;20946871;28;20413;-72
2022/12/31 12:01:24;;;;;;;0.20;0.00;;;21.00;99.90;;;;;;20981864;28;20456;-71
2022/12/31 12:11:33;;;;;;;0.20;0.00;;;21.80;99.90;;;;;;20979711;28;20849;-71
2022/12/31 12:21:45;;;;;;;0.20;0.10;;;22.50;99.90;;;;;;20978279;28;20410;-72
2022/12/31 12:31:58;;;;;;;0.20;0.00;;;22.80;99.90;;;;;;20977579;28;20479;-71
2022/12/31 12:42:04;;;;;;;0.20;0.00;;;22.00;99.90;;;;;;20978437;28;20405;-72
2022/12/31 12:52:29;;;;;;;0.20;0.00;;;21.90;99.90;;;;;;20958234;28;20512;-73
2022/12/31 13:02:58;;;;;;;0.20;0.10;;;21.90;99.90;;;;;;20976495;28;20881;-71
2022/12/31 13:13:13;;;;;;;0.20;0.00;;;21.50;99.90;;;;;;20916714;28;20477;-71
2022/12/31 13:23:36;;;;;;;0.20;0.00;;;21.60;99.90;;;;;;20876986;28;20499;-70
2022/12/31 13:33:47;;;;;;;0.20;0.00;;;21.40;99.90;;;;;;20876240;28;20937;-72
2022/12/31 13:43:56;;;;;;;0.20;0.00;;;20.60;99.90;;;;;;20894147;28;20465;-71
2022/12/31 13:54:06;;;;;;;0.20;0.00;;;20.80;99.90;;;;;;20894470;28;20412;-71
2022/12/31 14:04:15;;;;;;;0.20;0.00;;;21.70;99.90;;;;;;20900981;28;20409;-71
2022/12/31 14:14:30;;;;;;;0.20;0.00;;;21.60;99.90;;;;;;20969373;28;20874;-70
2022/12/31 14:24:43;;;;;;;0.20;0.00;;;22.80;99.90;;;;;;20969164;28;20420;-71
2022/12/31 14:34:56;;;;;;;0.20;0.00;;;23.00;99.90;;;;;;20979156;28;20398;-71
2022/12/31 14:45:22;;;;;;;0.20;0.00;;;23.40;99.90;;;;;;20965328;28;20788;-72
2022/12/31 14:55:29;;;;;;;0.20;0.00;;;22.30;99.90;;;;;;20994642;28;20408;-71
2022/12/31 15:05:34;;;;;;;0.20;0.10;;;20.70;99.90;;;;;;20989401;28;20414;-73
2022/12/31 15:16:15;;;;;;;0.20;0.00;;;21.30;99.90;;;;;;20983486;28;20424;-69
2022/12/31 15:26:24;;;;;;;0.20;0.00;;;21.50;99.90;;;;;;20892272;28;20405;-72
2022/12/31 15:36:31;;;;;;;0.20;0.00;;;22.20;99.90;;;;;;20964393;28;20470;-72
2022/12/31 15:46:41;;;;;;;0.20;0.00;;;22.00;99.90;;;;;;20981356;28;20422;-73
2022/12/31 15:56:48;;;;;;;0.20;0.00;;;20.50;99.90;;;;;;20962507;28;20434;-74
2022/12/31 16:06:52;;;;;;;0.20;0.10;;;19.20;99.90;;;;;;20979602;28;20406;-73
2022/12/31 16:17:00;;;;;;;0.20;0.10;;;18.30;99.90;;;;;;20976651;28;20396;-73
2022/12/31 16:27:07;;;;;;;0.20;0.10;;;17.80;99.90;;;;;;20955776;28;20555;-72
2022/12/31 16:37:17;;;;;;;0.20;0.10;;;17.20;99.90;;;;;;20975605;28;20493;-69
2022/12/31 16:47:23;;;;;;;0.20;0.10;;;16.60;99.90;;;;;;20972527;28;20804;-72
2022/12/31 16:57:31;;;;;;;0.20;0.10;;;16.40;99.90;;;;;;20965099;28;20402;-72
2022/12/31 17:07:40;;;;;;;0.20;0.03;;;15.90;99.90;;;;;;20949916;28;20939;-74
2022/12/31 17:17:49;;;;;;;0.20;0.10;;;15.90;99.90;;;;;;20950127;28;20901;-75
2022/12/31 17:27:55;;;;;;;0.20;0.10;;;15.80;99.90;;;;;;20975735;28;20406;-77
2022/12/31 17:38:29;;;;;;;0.20;0.10;;;15.70;99.90;;;;;;20959939;28;20398;-75
2022/12/31 17:48:33;;;;;;;0.20;0.10;;;15.30;99.90;;;;;;20992245;28;20908;-71
2022/12/31 17:58:44;;;;;;;0.20;0.00;;;14.50;99.90;;;;;;20993442;28;20444;-72
2022/12/31 18:08:47;;;;;;;0.20;0.00;;;14.00;99.90;;;;;;20992917;28;20896;-71
2022/12/31 18:18:59;;;;;;;0.20;0.10;;;14.10;99.90;;;;;;20991800;28;20397;-71
2022/12/31 18:29:13;;;;;;;0.20;0.10;;;13.60;99.90;;;;;;20990415;28;20414;-71
2022/12/31 18:39:18;;;;;;;0.20;0.00;;;13.40;99.90;;;;;;20971273;28;20488;-71
2022/12/31 18:49:22;;;;;;;0.20;0.10;;;13.40;99.90;;;;;;20965842;28;20464;-72
2022/12/31 18:59:27;;;;;;;0.20;0.10;;;13.40;99.90;;;;;;20983486;28;20402;-70
2022/12/31 19:09:31;;;;;;;2.30;2.17;;;13.20;99.90;;;;;;20964505;28;20402;-70
2022/12/31 19:20:01;;;;;;;0.20;0.10;;;13.00;99.90;;;;;;20944507;28;21011;-70
2022/12/31 19:30:11;;;;;;;0.20;0.10;;;12.60;99.90;;;;;;20980025;28;20414;-69
2022/12/31 19:40:18;;;;;;;0.20;0.10;;;12.40;99.90;;;;;;20959446;28;20427;-71
2022/12/31 19:50:24;;;;;;;15.00;14.10;;;12.40;99.90;;;;;;20959538;28;20799;-72
2022/12/31 20:00:48;;;;;;;0.20;0.00;;;12.40;99.90;;;;;;20977495;28;20394;-72
2022/12/31 20:11:08;;;;;;;0.20;0.10;;;12.30;99.90;;;;;;20961374;28;20676;-70
2022/12/31 20:21:16;;;;;;;0.20;0.10;;;12.30;99.90;;;;;;20959882;28;20776;-69
2022/12/31 20:31:38;;;;;;;0.20;0.10;;;12.00;99.90;;;;;;20976723;28;20734;-68
2022/12/31 20:41:43;;;;;;;0.20;0.10;;;11.60;99.90;;;;;;20958714;28;20833;-68
2022/12/31 20:51:46;;;;;;;0.20;0.10;;;11.50;99.90;;;;;;20975308;28;20426;-70
2022/12/31 21:01:56;;;;;;;0.20;0.10;;;11.20;99.90;;;;;;20975975;28;20398;-71
2022/12/31 21:22:42;;;;;;;0.20;0.03;;;11.30;99.90;;;;;;20974945;28;20463;-70
2022/12/31 21:32:46;;;;;;;0.20;0.10;;;11.20;99.90;;;;;;20974294;28;20414;-70
2022/12/31 21:43:08;;;;;;;0.20;0.00;;;10.90;99.90;;;;;;20956949;28;20752;-71
2022/12/31 21:53:12;;;;;;;0.20;0.00;;;10.90;99.90;;;;;;20974233;28;20795;-70
2022/12/31 22:03:26;;;;;;;0.20;0.10;;;10.70;99.90;;;;;;20955518;28;20485;-70
2022/12/31 22:13:30;;;;;;;0.20;0.10;;;10.70;99.90;;;;;;20973173;28;20410;-69
2022/12/31 22:23:36;;;;;;;0.20;0.10;;;10.90;99.90;;;;;;20972384;28;20404;-70
2022/12/31 22:33:40;;;;;;;0.20;0.10;;;10.90;99.90;;;;;;20987000;28;20652;-70
2022/12/31 22:43:46;;;;;;;0.20;0.10;;;10.60;99.90;;;;;;20984746;28;20398;-70
2022/12/31 22:53:50;;;;;;;0.20;0.10;;;10.50;99.90;;;;;;20984171;28;20416;-70
2022/12/31 23:03:56;;;;;;;0.20;0.10;;;10.40;99.90;;;;;;20966606;28;20391;-70
2022/12/31 23:24:22;;;;;;;0.20;0.10;;;10.30;99.90;;;;;;20981299;28;20433;-71
2022/12/31 23:34:29;;;;;;;0.20;0.00;;;10.20;99.90;;;;;;20979828;28;20417;-71
2022/12/31 23:44:34;;;;;;;0.20;0.10;;;10.30;99.90;;;;;;20976724;28;20479;-70
2022/12/31 23:54:37;;;;;;;0.20;0.10;;;10.20;99.90;;;;;;20977743;28;20394;-70
